N6861W KMGJ-N43
Flight info
| Callsign | N6861W |
|---|---|
| Flight time | N/A |
| Altitude | 6500 |
| Route | KMGJ DCT STW DCT N43 |
| Aircraft | PA28/L-SGR/C |
Departure
| Time | 2026-04-12 14:58 |
|---|---|
| Airport | Orange County Airport (KMGJ) |
Arrival
| Time | N/A |
|---|---|
| Airport | Braden Airpark (N43) |
| Time | Latitude | Longitude | Altitude | Speed | Heading |
|---|---|---|---|---|---|
| 2026-04-12 14:41 | 41.51115 | -74.25726 | 366 ft | 0 kts | 157° |
| 2026-04-12 14:52 | 41.51113 | -74.25726 | 366 ft | 0 kts | 163° |
| 2026-04-12 14:54 | 41.51111 | -74.25727 | 366 ft | 2 kts | 216° |
| 2026-04-12 14:54 | 41.51088 | -74.25784 | 365 ft | 7 kts | 219° |
| 2026-04-12 14:54 | 41.51076 | -74.25722 | 366 ft | 14 kts | 64° |
| 2026-04-12 14:55 | 41.51085 | -74.25626 | 367 ft | 2 kts | 140° |
| 2026-04-12 14:55 | 41.51083 | -74.25623 | 367 ft | 0 kts | 145° |
| 2026-04-12 14:56 | 41.51082 | -74.25623 | 367 ft | 1 kts | 146° |
| 2026-04-12 14:57 | 41.51054 | -74.25605 | 369 ft | 3 kts | 162° |
| 2026-04-12 14:57 | 41.51028 | -74.25605 | 369 ft | 4 kts | 216° |
| 2026-04-12 14:57 | 41.50997 | -74.25679 | 368 ft | 31 kts | 244° |
| 2026-04-12 14:57 | 41.50827 | -74.26192 | 418 ft | 77 kts | 246° |
| 2026-04-12 14:58 | 41.50632 | -74.26834 | 718 ft | 71 kts | 248° |
| 2026-04-12 14:58 | 41.50365 | -74.27371 | 973 ft | 73 kts | 212° |
| 2026-04-12 14:58 | 41.49990 | -74.27799 | 1270 ft | 68 kts | 228° |
| 2026-04-12 14:58 | 41.49730 | -74.28333 | 1605 ft | 72 kts | 227° |
| 2026-04-12 14:59 | 41.49433 | -74.28857 | 1933 ft | 71 kts | 223° |
| 2026-04-12 14:59 | 41.49075 | -74.29348 | 2240 ft | 76 kts | 214° |
| 2026-04-12 14:59 | 41.48657 | -74.29787 | 2682 ft | 78 kts | 214° |
| 2026-04-12 14:59 | 41.48265 | -74.30269 | 3196 ft | 74 kts | 216° |
| 2026-04-12 15:00 | 41.47484 | -74.31328 | 3962 ft | 92 kts | 219° |
| 2026-04-12 15:00 | 41.46946 | -74.31834 | 4307 ft | 97 kts | 216° |
| 2026-04-12 15:00 | 41.46369 | -74.32314 | 4667 ft | 98 kts | 216° |
| 2026-04-12 15:01 | 41.45799 | -74.32823 | 5034 ft | 98 kts | 223° |
| 2026-04-12 15:01 | 41.45256 | -74.33391 | 5345 ft | 101 kts | 226° |
| 2026-04-12 15:01 | 41.44716 | -74.33989 | 5658 ft | 100 kts | 228° |
| 2026-04-12 15:01 | 41.44184 | -74.34613 | 5929 ft | 104 kts | 229° |
| 2026-04-12 15:02 | 41.43644 | -74.35267 | 6189 ft | 107 kts | 230° |
| 2026-04-12 15:02 | 41.43081 | -74.35968 | 6316 ft | 118 kts | 230° |
| 2026-04-12 15:02 | 41.42473 | -74.36788 | 6341 ft | 124 kts | 232° |
| 2026-04-12 15:02 | 41.41880 | -74.37651 | 6369 ft | 129 kts | 234° |
| 2026-04-12 15:03 | 41.41286 | -74.38573 | 6376 ft | 133 kts | 234° |